createdAt,value
2022-12-14T00:01:59.899Z,95750.03
2022-12-14T00:06:54.561Z,95739.34
2022-12-14T00:11:47.855Z,95729.22
2022-12-14T00:16:41.175Z,95733.03
2022-12-14T00:21:34.544Z,95727.94
2022-12-14T00:26:32.206Z,95731.22
2022-12-14T00:31:26.837Z,95727.31
2022-12-14T00:36:20.504Z,95707.00
2022-12-14T00:41:14.049Z,95696.75
2022-12-14T00:46:09.330Z,95714.50
2022-12-14T00:51:02.933Z,95707.84
2022-12-14T00:55:56.219Z,95700.06
2022-12-14T01:01:00.443Z,95703.75
2022-12-14T01:05:55.092Z,95708.66
2022-12-14T01:10:48.430Z,95704.28
2022-12-14T01:15:41.913Z,95706.09
2022-12-14T01:20:35.214Z,95712.56
2022-12-14T01:25:30.019Z,95708.00
2022-12-14T01:30:23.351Z,95704.06
2022-12-14T01:35:17.344Z,95707.81
2022-12-14T01:40:11.564Z,95695.53
2022-12-14T01:45:17.761Z,95694.38
2022-12-14T01:50:24.186Z,95694.84
2022-12-14T01:55:22.691Z,95695.63
2022-12-14T02:00:18.217Z,95693.69
2022-12-14T02:05:15.242Z,95693.81
2022-12-14T02:10:10.983Z,95687.91
2022-12-14T02:15:05.216Z,95681.44
2022-12-14T02:20:00.318Z,95674.38
2022-12-14T02:25:16.610Z,95678.94
2022-12-14T02:30:16.045Z,95658.03
2022-12-14T02:35:23.799Z,95641.50
2022-12-14T02:40:29.554Z,95645.19
2022-12-14T02:45:35.696Z,95627.50
2022-12-14T02:50:40.006Z,95630.59
2022-12-14T02:55:40.084Z,95616.41
2022-12-14T03:00:38.576Z,95616.09
2022-12-14T03:05:31.901Z,95620.72
2022-12-14T03:10:38.654Z,95605.38
2022-12-14T03:15:37.792Z,95619.69
2022-12-14T03:20:36.651Z,95606.13
2022-12-14T03:25:36.418Z,95601.31
2022-12-14T03:30:58.706Z,95588.59
2022-12-14T03:35:57.819Z,95566.16
2022-12-14T03:41:04.858Z,95577.78
2022-12-14T03:46:09.562Z,95587.47
2022-12-14T03:51:19.229Z,95578.22
2022-12-14T03:56:22.340Z,95582.63
2022-12-14T04:01:28.579Z,95577.34
2022-12-14T04:06:36.085Z,95569.78
2022-12-14T04:11:53.918Z,95557.63
2022-12-14T04:17:09.818Z,95541.31
2022-12-14T04:22:12.646Z,95545.00
2022-12-14T04:27:12.424Z,95531.84
2022-12-14T04:32:14.758Z,95533.69
2022-12-14T04:37:18.372Z,95536.00
2022-12-14T04:42:16.092Z,95522.09
2022-12-14T04:47:15.095Z,95514.59
2022-12-14T04:52:17.182Z,95505.84
2022-12-14T04:57:20.696Z,95495.09
2022-12-14T05:02:29.916Z,95488.09
2022-12-14T05:07:38.788Z,95500.63
2022-12-14T05:12:41.527Z,95489.16
2022-12-14T05:17:37.494Z,95474.56
2022-12-14T05:22:32.143Z,95469.31
2022-12-14T05:27:25.452Z,95462.94
2022-12-14T05:32:18.787Z,95450.88
2022-12-14T05:37:17.966Z,95440.72
2022-12-14T05:42:13.102Z,95453.59
2022-12-14T05:47:06.589Z,95448.06
2022-12-14T05:51:59.927Z,95449.78
2022-12-14T05:56:53.261Z,95435.44
2022-12-14T06:01:49.382Z,95431.28
2022-12-14T06:06:43.809Z,95410.34
2022-12-14T06:11:39.979Z,95415.53
2022-12-14T06:16:33.263Z,95417.84
2022-12-14T06:21:30.848Z,95390.94
2022-12-14T06:26:25.089Z,95401.59
2022-12-14T06:31:21.176Z,95398.41
2022-12-14T06:36:23.939Z,95403.59
2022-12-14T06:41:19.321Z,95402.13
2022-12-14T06:46:16.007Z,95400.13
2022-12-14T06:51:10.392Z,95382.72
2022-12-14T06:56:08.756Z,95371.00
2022-12-14T07:01:05.572Z,95356.94
2022-12-14T07:05:59.461Z,95351.88
2022-12-14T07:10:56.326Z,95355.78
2022-12-14T07:15:57.306Z,95358.84
2022-12-14T07:20:58.722Z,95351.13
2022-12-14T07:25:52.391Z,95358.94
2022-12-14T07:30:45.774Z,95355.44
2022-12-14T07:35:39.261Z,95358.97
2022-12-14T07:40:36.395Z,95342.09
2022-12-14T07:45:29.668Z,95316.88
2022-12-14T07:50:22.964Z,95322.72
2022-12-14T07:55:16.582Z,95318.09
2022-12-14T08:00:13.092Z,95332.75
2022-12-14T08:05:12.283Z,95330.34
2022-12-14T08:10:07.065Z,95321.50
2022-12-14T08:15:00.335Z,95314.31
2022-12-14T08:19:54.989Z,95326.97
2022-12-14T08:24:49.397Z,95324.84
2022-12-14T08:29:43.350Z,95340.53
2022-12-14T08:34:36.739Z,95329.91
2022-12-14T08:39:31.332Z,95322.53
2022-12-14T08:44:24.636Z,95317.47
2022-12-14T08:49:18.018Z,95326.25
2022-12-14T08:54:11.437Z,95315.47
2022-12-14T08:59:06.177Z,95313.16
2022-12-14T09:04:05.206Z,95304.84
2022-12-14T09:09:02.076Z,95309.56
2022-12-14T09:13:56.556Z,95324.03
2022-12-14T09:18:51.501Z,95335.63
2022-12-14T09:23:45.060Z,95320.75
2022-12-14T09:28:41.633Z,95324.97
2022-12-14T09:33:35.371Z,95336.88
2022-12-14T09:38:32.926Z,95332.63
2022-12-14T09:43:42.080Z,95306.47
2022-12-14T09:48:37.768Z,95305.88
2022-12-14T09:53:32.846Z,95285.06
2022-12-14T09:58:30.586Z,95288.22
2022-12-14T10:03:54.090Z,95280.22
2022-12-14T10:08:57.764Z,95270.41
2022-12-14T10:14:09.443Z,95271.06
2022-12-14T10:19:26.024Z,95275.19
2022-12-14T10:24:27.136Z,95271.16
2022-12-14T10:29:33.301Z,95263.44
2022-12-14T10:34:33.061Z,95272.72
2022-12-14T10:39:49.945Z,95266.75
2022-12-14T10:45:23.511Z,95260.75
2022-12-14T10:50:25.695Z,95260.25
2022-12-14T10:55:29.113Z,95249.50
2022-12-14T11:00:23.446Z,95251.53
2022-12-14T11:05:36.056Z,95227.28
2022-12-14T11:10:36.023Z,95223.03
2022-12-14T11:15:34.599Z,95210.31
2022-12-14T11:20:28.158Z,95222.78
2022-12-14T11:25:40.046Z,95206.75
2022-12-14T11:30:33.601Z,95209.34
2022-12-14T11:35:26.968Z,95220.69
2022-12-14T11:40:25.739Z,95217.19
2022-12-14T11:45:34.128Z,95222.50
2022-12-14T11:50:32.597Z,95222.00
2022-12-14T11:55:36.742Z,95221.09
2022-12-14T12:00:47.151Z,95226.47
2022-12-14T12:05:44.666Z,95227.63
2022-12-14T12:10:42.916Z,95221.72
2022-12-14T12:15:41.841Z,95218.03
2022-12-14T12:20:41.339Z,95232.78
2022-12-14T12:25:37.888Z,95228.19
2022-12-14T12:30:40.716Z,95230.53
2022-12-14T12:35:44.217Z,95226.19
2022-12-14T12:40:50.825Z,95237.00
2022-12-14T12:45:50.823Z,95243.69
2022-12-14T12:50:49.525Z,95241.31
2022-12-14T12:55:51.003Z,95222.44
2022-12-14T13:00:51.693Z,95204.59
2022-12-14T13:05:48.093Z,95195.53
2022-12-14T13:11:17.277Z,95190.28
2022-12-14T13:16:17.939Z,95186.41
2022-12-14T13:21:30.221Z,95191.19
2022-12-14T13:27:04.548Z,95192.34
2022-12-14T13:32:16.350Z,95192.66
2022-12-14T13:37:48.903Z,95208.19
2022-12-14T13:42:56.985Z,95209.88
2022-12-14T13:47:56.458Z,95212.88
2022-12-14T13:52:51.702Z,95233.50
2022-12-14T13:57:45.175Z,95234.72
2022-12-14T14:02:41.605Z,95245.84
2022-12-14T14:07:53.603Z,95249.81
2022-12-14T14:12:46.983Z,95252.41
2022-12-14T14:17:44.638Z,95258.91
2022-12-14T14:22:39.322Z,95271.28
2022-12-14T14:27:39.710Z,95272.94
2022-12-14T14:32:42.429Z,95253.97
2022-12-14T14:37:42.041Z,95253.88
2022-12-14T14:42:43.375Z,95245.75
2022-12-14T14:47:39.439Z,95250.34
2022-12-14T14:53:12.757Z,95248.81
2022-12-14T14:58:22.804Z,95257.56
2022-12-14T15:03:19.687Z,95251.69
2022-12-14T15:08:23.792Z,95252.94
2022-12-14T15:13:24.251Z,95264.63
2022-12-14T15:18:22.753Z,95280.78
2022-12-14T15:23:17.877Z,95283.13
2022-12-14T15:28:28.129Z,95290.91
2022-12-14T15:33:28.499Z,95308.94
2022-12-14T15:38:29.008Z,95310.50
2022-12-14T15:43:24.868Z,95317.50
2022-12-14T15:48:25.849Z,95336.91
2022-12-14T15:53:31.495Z,95340.59
2022-12-14T15:58:33.452Z,95337.66
2022-12-14T16:03:33.543Z,95346.06
2022-12-14T16:08:33.248Z,95354.41
2022-12-14T16:13:31.768Z,95347.88
2022-12-14T16:18:26.543Z,95347.94
2022-12-14T16:23:32.648Z,95339.88
2022-12-14T16:28:31.097Z,95347.09
2022-12-14T16:33:25.777Z,95345.78
2022-12-14T16:38:19.552Z,95338.69
2022-12-14T16:43:35.301Z,95348.63
2022-12-14T16:48:28.946Z,95360.81
2022-12-14T16:53:26.293Z,95362.84
2022-12-14T16:58:19.690Z,95366.78
2022-12-14T17:03:24.568Z,95371.75
2022-12-14T17:08:18.883Z,95368.06
2022-12-14T17:13:12.270Z,95375.22
2022-12-14T17:18:08.275Z,95364.53
2022-12-14T17:23:03.881Z,95365.84
2022-12-14T17:27:57.602Z,95377.63
2022-12-14T17:32:53.351Z,95366.94
2022-12-14T17:37:46.757Z,95361.28
2022-12-14T17:42:50.899Z,95357.16
2022-12-14T17:47:47.006Z,95366.66
2022-12-14T17:52:40.235Z,95359.63
2022-12-14T17:57:33.587Z,95357.59
2022-12-14T18:02:33.846Z,95365.16
2022-12-14T18:07:27.719Z,95375.91
2022-12-14T18:12:23.607Z,95379.56
2022-12-14T18:17:17.516Z,95369.72
2022-12-14T18:22:13.263Z,95365.88
2022-12-14T18:27:07.554Z,95378.31
2022-12-14T18:32:01.501Z,95379.97
2022-12-14T18:36:55.189Z,95389.00
2022-12-14T18:41:49.943Z,95391.44
2022-12-14T18:46:43.409Z,95405.81
2022-12-14T18:51:42.895Z,95409.47
2022-12-14T18:56:53.416Z,95411.63
2022-12-14T19:01:52.362Z,95413.94
2022-12-14T19:06:46.215Z,95408.66
2022-12-14T19:11:42.755Z,95397.06
2022-12-14T19:16:36.313Z,95399.44
2022-12-14T19:21:31.632Z,95403.59
2022-12-14T19:26:25.216Z,95403.09
2022-12-14T19:31:18.671Z,95411.00
2022-12-14T19:36:14.730Z,95414.44
2022-12-14T19:41:13.604Z,95423.03
2022-12-14T19:46:08.749Z,95428.84
2022-12-14T19:51:05.875Z,95434.41
2022-12-14T19:55:59.373Z,95434.56
2022-12-14T20:00:54.375Z,95425.06
2022-12-14T20:05:56.667Z,95421.81
2022-12-14T20:10:52.684Z,95432.31
2022-12-14T20:15:50.791Z,95439.66
2022-12-14T20:21:10.801Z,95442.88
2022-12-14T20:32:13.323Z,95453.41
2022-12-14T21:07:35.346Z,95457.19
2022-12-14T21:12:28.786Z,95464.75
2022-12-14T21:17:28.685Z,95469.63
2022-12-14T23:11:16.262Z,95506.81
2022-12-14T23:16:27.077Z,95497.03
2022-12-14T23:21:39.142Z,95493.13
2022-12-14T23:52:04.860Z,95511.81
